createdAt,value
2022-12-24T00:00:58.355Z,9.75
2022-12-24T00:03:24.898Z,9.82
2022-12-24T00:05:51.319Z,9.81
2022-12-24T00:08:17.733Z,9.84
2022-12-24T00:10:44.112Z,9.75
2022-12-24T00:13:10.495Z,9.76
2022-12-24T00:15:36.842Z,9.79
2022-12-24T00:18:03.211Z,9.76
2022-12-24T00:20:29.601Z,9.64
2022-12-24T00:22:55.982Z,9.80
2022-12-24T00:25:22.352Z,9.76
2022-12-24T00:27:48.726Z,9.70
2022-12-24T00:30:15.086Z,9.72
2022-12-24T00:32:41.509Z,9.70
2022-12-24T00:35:07.928Z,9.69
2022-12-24T00:37:34.316Z,9.70
2022-12-24T00:40:00.640Z,9.69
2022-12-24T00:42:27.028Z,9.70
2022-12-24T00:44:53.380Z,9.69
2022-12-24T00:47:19.747Z,9.73
2022-12-24T00:49:46.181Z,9.71
2022-12-24T00:52:12.551Z,9.79
2022-12-24T00:54:38.941Z,9.80
2022-12-24T00:57:05.383Z,9.80
2022-12-24T00:59:31.836Z,9.61
2022-12-24T01:01:58.284Z,9.62
2022-12-24T01:04:43.829Z,9.63
2022-12-24T01:07:10.230Z,9.52
2022-12-24T01:09:36.603Z,9.48
2022-12-24T01:12:02.932Z,9.60
2022-12-24T01:14:29.322Z,9.53
2022-12-24T01:16:55.689Z,9.62
2022-12-24T01:19:22.104Z,9.64
2022-12-24T01:21:48.466Z,9.65
2022-12-24T01:24:15.099Z,9.61
2022-12-24T01:26:41.449Z,9.64
2022-12-24T01:29:07.869Z,9.61
2022-12-24T01:31:34.331Z,9.60
2022-12-24T01:34:00.793Z,9.53
2022-12-24T01:36:27.207Z,9.62
2022-12-24T01:38:53.617Z,9.62
2022-12-24T01:41:38.836Z,9.57
2022-12-24T01:44:05.230Z,9.55
2022-12-24T01:46:31.612Z,9.59
2022-12-24T01:48:58.133Z,9.62
2022-12-24T01:51:24.500Z,9.68
2022-12-24T01:53:50.935Z,9.52
2022-12-24T01:56:17.367Z,9.49
2022-12-24T01:58:43.709Z,9.41
2022-12-24T02:01:10.170Z,9.46
2022-12-24T02:03:36.635Z,9.36
2022-12-24T02:06:03.239Z,9.33
2022-12-24T02:08:40.060Z,9.35
2022-12-24T02:11:06.608Z,9.33
2022-12-24T02:13:32.993Z,9.45
2022-12-24T02:15:59.386Z,9.34
2022-12-24T02:18:25.839Z,9.33
2022-12-24T02:20:52.197Z,9.28
2022-12-24T02:23:18.576Z,9.37
2022-12-24T02:25:45.067Z,9.42
2022-12-24T02:28:11.422Z,9.41
2022-12-24T02:30:37.748Z,9.41
2022-12-24T02:33:04.120Z,9.45
2022-12-24T02:35:30.480Z,9.40
2022-12-24T02:37:57.681Z,9.42
2022-12-24T02:40:24.039Z,9.34
2022-12-24T02:42:50.421Z,9.36
2022-12-24T02:45:16.847Z,9.37
2022-12-24T02:47:43.245Z,9.30
2022-12-24T02:50:09.632Z,9.28
2022-12-24T02:52:36.026Z,9.25
2022-12-24T02:55:02.411Z,9.26
2022-12-24T02:57:28.813Z,9.17
2022-12-24T02:59:55.168Z,9.16
2022-12-24T03:02:21.637Z,9.10
2022-12-24T03:04:48.057Z,9.08
2022-12-24T03:07:15.443Z,8.91
2022-12-24T03:09:41.814Z,8.97
2022-12-24T03:12:08.246Z,8.98
2022-12-24T03:14:34.866Z,9.02
2022-12-24T03:17:01.228Z,9.01
2022-12-24T03:19:27.669Z,9.04
2022-12-24T03:21:53.990Z,9.04
2022-12-24T03:24:20.359Z,9.02
2022-12-24T03:26:46.924Z,9.10
2022-12-24T03:29:13.329Z,9.05
2022-12-24T03:31:39.769Z,9.02
2022-12-24T03:34:06.204Z,8.92
2022-12-24T03:36:32.629Z,9.00
2022-12-24T03:38:59.024Z,9.00
2022-12-24T03:41:25.376Z,9.13
2022-12-24T03:43:51.765Z,9.05
2022-12-24T03:46:18.220Z,9.00
2022-12-24T03:48:44.675Z,8.97
2022-12-24T03:51:11.063Z,8.95
2022-12-24T03:53:37.429Z,9.02
2022-12-24T03:56:03.803Z,9.03
2022-12-24T03:58:30.215Z,9.00
2022-12-24T04:00:56.663Z,9.04
2022-12-24T04:03:23.191Z,9.04
2022-12-24T04:05:49.598Z,9.02
2022-12-24T04:08:16.001Z,9.06
2022-12-24T04:10:42.319Z,9.03
2022-12-24T04:13:12.407Z,8.99
2022-12-24T04:15:38.787Z,9.01
2022-12-24T04:18:05.186Z,8.95
2022-12-24T04:20:31.539Z,8.92
2022-12-24T04:22:58.050Z,8.95
2022-12-24T04:25:24.444Z,8.95
2022-12-24T04:27:51.085Z,8.96
2022-12-24T04:30:17.397Z,8.89
2022-12-24T04:32:43.813Z,8.90
2022-12-24T04:35:10.170Z,8.86
2022-12-24T04:37:36.685Z,8.92
2022-12-24T04:40:03.154Z,8.90
2022-12-24T04:42:29.557Z,8.90
2022-12-24T04:44:55.989Z,8.84
2022-12-24T04:47:22.391Z,8.81
2022-12-24T04:49:48.812Z,8.85
2022-12-24T04:52:15.713Z,8.81
2022-12-24T04:54:42.101Z,8.81
2022-12-24T04:57:08.491Z,8.86
2022-12-24T04:59:34.860Z,8.82
2022-12-24T05:02:01.441Z,8.89
2022-12-24T05:04:27.903Z,8.68
2022-12-24T05:06:54.291Z,8.67
2022-12-24T05:09:20.683Z,8.76
2022-12-24T05:11:47.051Z,8.63
2022-12-24T05:14:13.465Z,8.57
2022-12-24T05:16:39.889Z,8.51
2022-12-24T05:19:06.332Z,8.53
2022-12-24T05:21:32.755Z,8.47
2022-12-24T05:24:17.640Z,8.30
2022-12-24T05:26:44.254Z,8.32
2022-12-24T05:29:12.290Z,8.34
2022-12-24T05:31:40.262Z,8.35
2022-12-24T05:34:06.680Z,8.21
2022-12-24T05:36:33.068Z,8.32
2022-12-24T05:38:59.458Z,8.38
2022-12-24T05:41:25.811Z,8.24
2022-12-24T05:43:52.237Z,8.28
2022-12-24T05:46:19.105Z,8.24
2022-12-24T05:48:45.639Z,8.10
2022-12-24T05:51:12.075Z,8.11
2022-12-24T05:53:38.513Z,8.17
2022-12-24T05:56:04.896Z,8.13
2022-12-24T05:58:31.507Z,8.20
2022-12-24T06:00:57.896Z,8.23
2022-12-24T06:03:24.361Z,8.20
2022-12-24T06:05:50.773Z,8.25
2022-12-24T06:08:17.220Z,8.22
2022-12-24T06:10:43.577Z,8.36
2022-12-24T06:13:09.979Z,8.38
2022-12-24T06:15:36.424Z,8.26
2022-12-24T06:18:03.339Z,8.35
2022-12-24T06:20:30.054Z,8.40
2022-12-24T06:22:56.441Z,8.33
2022-12-24T06:25:25.555Z,8.29
2022-12-24T06:27:52.016Z,8.29
2022-12-24T06:30:18.758Z,8.24
2022-12-24T06:32:45.353Z,8.18
2022-12-24T06:35:12.332Z,8.27
2022-12-24T06:37:38.725Z,8.26
2022-12-24T06:40:05.095Z,8.23
2022-12-24T06:42:31.485Z,8.37
2022-12-24T06:45:02.148Z,8.19
2022-12-24T06:47:32.032Z,8.23
2022-12-24T06:49:58.419Z,8.23
2022-12-24T06:52:25.048Z,8.29
2022-12-24T06:54:51.438Z,8.35
2022-12-24T06:57:21.953Z,8.40
2022-12-24T06:59:48.351Z,8.15
2022-12-24T07:02:14.823Z,8.06
2022-12-24T07:04:41.284Z,8.02
2022-12-24T07:07:07.629Z,7.97
2022-12-24T07:09:34.340Z,8.08
2022-12-24T07:12:00.664Z,8.20
2022-12-24T07:14:27.085Z,8.36
2022-12-24T07:16:58.705Z,8.24
2022-12-24T07:19:25.665Z,8.31
2022-12-24T07:21:52.036Z,8.31
2022-12-24T07:24:18.577Z,8.43
2022-12-24T07:26:44.979Z,8.21
2022-12-24T07:29:11.387Z,8.21
2022-12-24T07:31:37.814Z,8.26
2022-12-24T07:34:04.335Z,8.14
2022-12-24T07:36:30.730Z,8.16
2022-12-24T07:38:57.135Z,8.12
2022-12-24T07:41:23.548Z,8.16
2022-12-24T07:43:49.948Z,8.17
2022-12-24T07:46:16.407Z,8.16
2022-12-24T07:48:42.833Z,8.20
2022-12-24T07:51:09.376Z,8.13
2022-12-24T07:53:35.795Z,8.14
2022-12-24T07:56:06.166Z,8.26
2022-12-24T07:58:35.403Z,8.19
2022-12-24T08:01:01.827Z,8.13
2022-12-24T08:03:28.314Z,7.96
2022-12-24T08:05:54.955Z,8.20
2022-12-24T08:08:21.650Z,8.20
2022-12-24T08:10:48.078Z,8.25
2022-12-24T08:13:14.606Z,8.22
2022-12-24T08:15:40.958Z,8.38
2022-12-24T08:18:07.346Z,8.44
2022-12-24T08:20:33.751Z,8.29
2022-12-24T08:23:00.153Z,8.28
2022-12-24T08:25:26.520Z,8.27
2022-12-24T08:27:52.922Z,8.29
2022-12-24T08:30:21.410Z,8.46
2022-12-24T08:32:48.159Z,8.31
2022-12-24T08:35:14.508Z,8.42
2022-12-24T08:37:40.886Z,8.50
2022-12-24T08:40:07.234Z,8.42
2022-12-24T08:42:33.657Z,8.49
2022-12-24T08:45:00.048Z,8.66
2022-12-24T08:47:26.443Z,8.60
2022-12-24T08:49:52.889Z,8.66
2022-12-24T08:52:19.272Z,8.69
2022-12-24T08:54:45.611Z,8.58
2022-12-24T08:57:12.269Z,8.52
2022-12-24T08:59:38.610Z,8.55
2022-12-24T09:02:05.139Z,8.59
2022-12-24T09:04:31.604Z,8.57
2022-12-24T09:06:58.019Z,8.62
2022-12-24T09:09:24.684Z,8.46
2022-12-24T09:11:51.421Z,8.30
2022-12-24T09:14:17.773Z,8.35
2022-12-24T09:16:44.143Z,8.35
2022-12-24T09:19:10.605Z,8.39
2022-12-24T09:21:36.956Z,8.24
2022-12-24T09:24:03.340Z,8.40
2022-12-24T09:26:31.452Z,8.36
2022-12-24T09:28:57.891Z,8.48
2022-12-24T09:31:24.337Z,8.40
2022-12-24T09:33:53.140Z,8.26
2022-12-24T09:36:19.528Z,8.31
2022-12-24T09:38:45.917Z,8.46
2022-12-24T09:41:13.593Z,8.47
2022-12-24T09:43:40.005Z,8.54
2022-12-24T09:46:06.712Z,8.28
2022-12-24T09:48:33.112Z,8.44
2022-12-24T09:50:59.492Z,8.46
2022-12-24T09:53:25.887Z,8.49
2022-12-24T09:55:52.598Z,8.71
2022-12-24T09:58:20.395Z,8.67
2022-12-24T10:00:50.079Z,8.64
2022-12-24T10:03:17.008Z,8.60
2022-12-24T10:05:43.391Z,8.61
2022-12-24T10:08:09.839Z,8.67
2022-12-24T10:10:36.208Z,8.73
2022-12-24T10:13:02.587Z,8.76
2022-12-24T10:15:29.056Z,8.85
2022-12-24T10:17:55.481Z,8.84
2022-12-24T10:20:21.834Z,8.93
2022-12-24T10:22:48.201Z,8.98
2022-12-24T10:25:14.575Z,8.92
2022-12-24T10:27:41.139Z,9.07
2022-12-24T10:30:10.355Z,8.89
2022-12-24T10:32:39.695Z,8.96
2022-12-24T10:35:06.031Z,8.89
2022-12-24T10:37:32.935Z,8.93
2022-12-24T10:39:59.289Z,8.98
2022-12-24T10:42:25.670Z,9.06
2022-12-24T10:44:52.021Z,9.25
2022-12-24T10:47:19.081Z,9.37
2022-12-24T10:49:45.537Z,9.38
2022-12-24T10:52:12.024Z,9.33
2022-12-24T10:54:41.396Z,9.27
2022-12-24T10:57:07.842Z,9.38
2022-12-24T10:59:34.258Z,9.45
2022-12-24T11:02:00.858Z,9.46
2022-12-24T11:04:27.897Z,9.63
2022-12-24T11:06:54.288Z,9.60
2022-12-24T11:09:20.652Z,9.55
2022-12-24T11:11:47.030Z,9.55
2022-12-24T11:14:13.404Z,9.51
2022-12-24T11:16:39.777Z,9.58
2022-12-24T11:19:06.194Z,9.58
2022-12-24T11:21:32.607Z,9.65
2022-12-24T11:23:59.038Z,9.79
2022-12-24T11:26:25.486Z,9.86
2022-12-24T11:28:51.891Z,9.81
2022-12-24T11:31:18.331Z,9.81
2022-12-24T11:33:44.782Z,9.78
2022-12-24T11:36:11.192Z,9.86
2022-12-24T11:38:38.092Z,9.91
2022-12-24T11:41:04.520Z,9.82
2022-12-24T11:43:44.476Z,9.72
2022-12-24T11:46:11.221Z,9.70
2022-12-24T11:48:37.593Z,9.79
2022-12-24T11:51:03.951Z,9.65
2022-12-24T11:53:30.336Z,9.64
2022-12-24T11:55:56.733Z,9.69
2022-12-24T11:58:23.140Z,9.68
2022-12-24T12:00:49.557Z,9.68
2022-12-24T12:03:15.983Z,9.55
2022-12-24T12:05:42.447Z,9.62
2022-12-24T12:08:08.855Z,9.61
2022-12-24T12:10:35.277Z,9.85
2022-12-24T12:13:01.675Z,10.15
2022-12-24T12:15:28.085Z,9.95
2022-12-24T12:17:54.758Z,10.03
2022-12-24T12:20:21.112Z,10.58
2022-12-24T12:22:47.533Z,10.36
2022-12-24T12:25:13.933Z,10.38
2022-12-24T12:27:40.336Z,10.31
2022-12-24T12:30:07.147Z,10.22
2022-12-24T12:32:33.574Z,9.95
2022-12-24T12:35:01.513Z,10.08
2022-12-24T12:37:27.897Z,10.17
2022-12-24T12:39:55.262Z,10.39
2022-12-24T12:42:23.848Z,10.34
2022-12-24T12:44:50.276Z,10.29
2022-12-24T12:47:17.463Z,10.33
2022-12-24T12:49:44.242Z,10.19
2022-12-24T12:52:10.688Z,10.18
2022-12-24T12:54:37.243Z,10.18
2022-12-24T12:57:03.598Z,10.21
2022-12-24T12:59:29.993Z,9.91
2022-12-24T13:01:56.478Z,9.90
2022-12-24T13:04:23.004Z,9.95
2022-12-24T13:06:49.370Z,9.99
2022-12-24T13:09:15.776Z,9.90
2022-12-24T13:11:42.152Z,10.05
2022-12-24T13:14:08.533Z,10.03
2022-12-24T13:16:35.049Z,9.95
2022-12-24T13:19:01.454Z,9.91
2022-12-24T13:21:27.907Z,9.77
2022-12-24T13:23:54.292Z,9.62
2022-12-24T13:26:20.749Z,9.66
2022-12-24T13:28:47.173Z,9.76
2022-12-24T13:31:13.626Z,9.60
2022-12-24T13:33:40.223Z,9.58
2022-12-24T13:36:06.646Z,9.66
2022-12-24T13:38:33.406Z,9.71
2022-12-24T13:40:59.764Z,9.85
2022-12-24T13:43:26.165Z,9.88
2022-12-24T13:45:52.618Z,9.89
2022-12-24T13:48:19.244Z,9.84
2022-12-24T13:50:45.686Z,9.70
2022-12-24T13:53:12.055Z,9.66
2022-12-24T13:55:38.456Z,9.56
2022-12-24T13:58:04.923Z,9.54
2022-12-24T14:00:31.420Z,9.56
2022-12-24T14:03:00.808Z,9.42
2022-12-24T14:05:27.218Z,9.57
2022-12-24T14:07:53.703Z,9.72
2022-12-24T14:10:20.030Z,9.53
2022-12-24T14:12:46.741Z,9.75
2022-12-24T14:15:13.146Z,9.64
2022-12-24T14:17:40.049Z,9.48
2022-12-24T14:20:06.512Z,9.62
2022-12-24T14:22:32.992Z,9.59
2022-12-24T14:24:59.414Z,9.47
2022-12-24T14:27:25.755Z,9.48
2022-12-24T14:29:52.126Z,9.43
2022-12-24T14:32:18.536Z,9.27
2022-12-24T14:34:44.992Z,9.25
2022-12-24T14:37:11.394Z,9.39
2022-12-24T14:39:37.763Z,9.24
2022-12-24T14:42:04.144Z,9.20
2022-12-24T14:44:35.515Z,9.23
2022-12-24T14:47:02.450Z,9.16
2022-12-24T14:49:28.989Z,9.21
2022-12-24T14:51:55.401Z,9.07
2022-12-24T14:54:24.416Z,8.90
2022-12-24T14:56:50.816Z,9.01
2022-12-24T14:59:17.295Z,8.98
2022-12-24T15:01:43.741Z,8.87
2022-12-24T15:04:10.307Z,9.02
2022-12-24T15:06:36.874Z,9.01
2022-12-24T15:09:03.289Z,8.94
2022-12-24T15:11:29.839Z,8.95
2022-12-24T15:13:56.356Z,8.89
2022-12-24T15:16:22.776Z,8.94
2022-12-24T15:18:49.186Z,9.04
2022-12-24T15:21:15.755Z,9.09
2022-12-24T15:23:42.149Z,8.94
2022-12-24T15:26:08.586Z,8.90
2022-12-24T15:28:34.956Z,8.82
2022-12-24T15:31:01.329Z,8.71
2022-12-24T15:33:27.749Z,8.62
2022-12-24T15:35:54.152Z,8.73
2022-12-24T15:38:20.660Z,8.84
2022-12-24T15:40:46.998Z,8.88
2022-12-24T15:43:13.401Z,8.84
2022-12-24T15:45:39.958Z,8.86
2022-12-24T15:48:06.431Z,8.72
2022-12-24T15:50:32.777Z,8.69
2022-12-24T15:53:20.077Z,8.74
2022-12-24T15:55:45.872Z,8.81
2022-12-24T15:58:12.264Z,8.69
2022-12-24T16:00:38.639Z,8.71
2022-12-24T16:03:05.303Z,8.57
2022-12-24T16:05:32.000Z,8.56
2022-12-24T16:08:07.666Z,8.71
2022-12-24T16:10:34.185Z,8.81
2022-12-24T16:13:00.570Z,8.85
2022-12-24T16:15:27.201Z,8.99
2022-12-24T16:17:53.614Z,8.90
2022-12-24T16:20:20.016Z,8.76
2022-12-24T16:22:46.414Z,8.71
2022-12-24T16:25:12.769Z,8.60
2022-12-24T16:27:39.343Z,8.76
2022-12-24T16:30:05.697Z,8.73
2022-12-24T16:32:32.282Z,8.59
2022-12-24T16:34:58.778Z,8.37
2022-12-24T16:37:25.175Z,7.98
2022-12-24T16:39:51.564Z,8.30
2022-12-24T16:42:37.163Z,7.98
2022-12-24T16:45:03.517Z,7.98
2022-12-24T16:47:33.609Z,8.11
2022-12-24T16:50:11.031Z,8.22
2022-12-24T16:52:37.421Z,8.15
2022-12-24T16:55:03.809Z,8.22
2022-12-24T16:57:30.219Z,8.31
2022-12-24T16:59:56.709Z,8.29
2022-12-24T17:02:23.187Z,8.29
2022-12-24T17:04:49.747Z,8.44
2022-12-24T17:07:16.089Z,8.18
2022-12-24T17:09:42.464Z,8.29
2022-12-24T17:12:08.864Z,8.05
2022-12-24T17:14:35.242Z,8.22
2022-12-24T17:17:01.663Z,8.27
2022-12-24T17:19:28.075Z,7.92
2022-12-24T17:21:54.435Z,7.87
2022-12-24T17:24:20.845Z,7.76
2022-12-24T17:26:48.287Z,7.70
2022-12-24T17:29:14.678Z,7.61
2022-12-24T17:31:42.818Z,7.43
2022-12-24T17:34:09.416Z,7.36
2022-12-24T17:36:35.749Z,7.38
2022-12-24T17:39:02.138Z,7.38
2022-12-24T17:41:28.503Z,7.50
2022-12-24T17:43:54.880Z,7.20
2022-12-24T17:46:22.356Z,7.29
2022-12-24T17:48:48.843Z,7.42
2022-12-24T17:51:15.272Z,7.47
2022-12-24T17:53:41.710Z,7.16
2022-12-24T17:56:08.119Z,7.27
2022-12-24T17:58:34.534Z,7.49
2022-12-24T18:01:01.303Z,7.49
2022-12-24T18:03:27.739Z,7.38
2022-12-24T18:05:54.259Z,7.52
2022-12-24T18:08:20.737Z,7.45
2022-12-24T18:10:47.208Z,7.54
2022-12-24T18:13:19.106Z,7.64
2022-12-24T18:15:45.819Z,7.86
2022-12-24T18:18:12.333Z,7.69
2022-12-24T18:20:46.029Z,7.63
2022-12-24T18:23:13.247Z,7.68
2022-12-24T18:25:39.598Z,7.61
2022-12-24T18:28:09.130Z,7.60
2022-12-24T18:30:35.464Z,7.66
2022-12-24T18:33:01.848Z,7.52
2022-12-24T18:35:28.333Z,7.42
2022-12-24T18:37:54.745Z,7.30
2022-12-24T18:40:21.174Z,7.17
2022-12-24T18:42:47.747Z,7.24
2022-12-24T18:45:14.108Z,7.35
2022-12-24T18:47:40.543Z,7.27
2022-12-24T18:50:06.890Z,7.36
2022-12-24T18:52:33.320Z,7.30
2022-12-24T18:54:59.726Z,7.37
2022-12-24T18:57:26.110Z,7.50
2022-12-24T18:59:52.509Z,7.43
2022-12-24T19:02:19.069Z,7.46
2022-12-24T19:04:45.532Z,7.14
2022-12-24T19:07:11.870Z,7.02
2022-12-24T19:09:38.243Z,7.09
2022-12-24T19:12:04.634Z,7.07
2022-12-24T19:14:31.170Z,7.25
2022-12-24T19:16:57.645Z,7.08
2022-12-24T19:19:24.580Z,7.14
2022-12-24T19:21:51.659Z,7.10
2022-12-24T19:24:18.067Z,7.45
2022-12-24T19:26:44.436Z,7.35
2022-12-24T19:29:10.823Z,7.26
2022-12-24T19:31:37.280Z,7.10
2022-12-24T19:34:03.736Z,6.89
2022-12-24T19:36:30.100Z,6.21
2022-12-24T19:38:56.689Z,6.20
2022-12-24T19:41:23.036Z,6.35
2022-12-24T19:43:49.436Z,6.26
2022-12-24T19:46:16.062Z,6.02
2022-12-24T19:48:42.471Z,5.99
2022-12-24T19:51:09.031Z,5.97
2022-12-24T19:53:35.510Z,5.82
2022-12-24T19:56:01.927Z,5.58
2022-12-24T19:58:28.399Z,5.57
2022-12-24T20:00:54.953Z,5.80
2022-12-24T20:03:21.414Z,5.59
2022-12-24T20:05:47.828Z,5.53
2022-12-24T20:08:14.188Z,5.61
2022-12-24T20:10:40.625Z,5.61
2022-12-24T20:13:06.996Z,5.41
2022-12-24T20:15:33.359Z,5.00
2022-12-24T20:17:59.731Z,5.01
2022-12-24T20:20:26.094Z,5.27
2022-12-24T20:22:52.477Z,5.02
2022-12-24T20:25:18.825Z,4.64
2022-12-24T20:27:45.197Z,5.06
2022-12-24T20:30:11.541Z,5.03
2022-12-24T20:32:37.902Z,5.06
2022-12-24T20:35:04.364Z,5.00
2022-12-24T20:37:30.775Z,5.04
2022-12-24T20:39:57.190Z,5.41
2022-12-24T20:42:23.543Z,5.19
2022-12-24T20:44:50.050Z,4.78
2022-12-24T20:47:16.455Z,5.06
2022-12-24T20:49:42.975Z,5.24
2022-12-24T20:52:09.403Z,5.21
2022-12-24T20:54:35.749Z,5.18
2022-12-24T20:57:02.105Z,5.42
2022-12-24T20:59:28.508Z,5.35
2022-12-24T21:01:55.005Z,5.11
2022-12-24T21:04:21.606Z,5.27
2022-12-24T21:06:47.966Z,5.44
2022-12-24T21:09:14.429Z,5.85
2022-12-24T21:11:49.970Z,5.80
2022-12-24T21:14:16.398Z,5.39
2022-12-24T21:16:42.788Z,5.70
2022-12-24T21:19:09.227Z,5.71
2022-12-24T21:21:35.767Z,5.80
2022-12-24T21:24:02.221Z,5.74
2022-12-24T21:26:28.584Z,5.40
2022-12-24T21:28:55.009Z,5.78
2022-12-24T21:31:21.536Z,6.16
2022-12-24T21:33:48.046Z,6.04
2022-12-24T21:36:14.456Z,6.05
2022-12-24T21:38:40.903Z,6.07
2022-12-24T21:41:07.314Z,6.27
2022-12-24T21:43:34.397Z,6.05
2022-12-24T21:46:00.820Z,6.08
2022-12-24T21:48:45.870Z,6.08
2022-12-24T21:51:12.254Z,6.07
2022-12-24T21:53:57.573Z,5.94
2022-12-24T21:56:24.190Z,5.92
2022-12-24T21:58:50.587Z,6.04
2022-12-24T22:01:17.184Z,6.05
2022-12-24T22:03:43.859Z,6.17
2022-12-24T22:06:30.265Z,6.00
2022-12-24T22:09:16.031Z,6.26
2022-12-24T22:11:54.006Z,6.06
2022-12-24T22:14:21.672Z,5.96
2022-12-24T22:16:48.233Z,5.91
2022-12-24T22:19:14.715Z,6.03
2022-12-24T22:21:43.528Z,6.31
2022-12-24T22:24:12.272Z,6.64
2022-12-24T22:26:38.667Z,6.83
2022-12-24T22:29:05.261Z,5.91
2022-12-24T22:31:32.574Z,6.10
2022-12-24T22:33:59.041Z,6.38
2022-12-24T22:36:25.402Z,6.43
2022-12-24T22:38:52.915Z,6.35
2022-12-24T22:41:19.309Z,6.64
2022-12-24T22:43:45.776Z,6.70
2022-12-24T22:46:12.268Z,6.84
2022-12-24T22:48:41.244Z,6.39
2022-12-24T22:51:07.738Z,6.59
2022-12-24T22:53:34.288Z,6.30
2022-12-24T22:56:00.749Z,6.20
2022-12-24T22:58:27.275Z,6.63
2022-12-24T23:00:53.680Z,6.50
2022-12-24T23:03:20.471Z,6.83
2022-12-24T23:05:46.938Z,6.65
2022-12-24T23:08:13.332Z,6.48
2022-12-24T23:10:39.711Z,6.99
2022-12-24T23:13:25.119Z,6.88
2022-12-24T23:15:51.534Z,6.93
2022-12-24T23:18:17.947Z,6.98
2022-12-24T23:20:47.430Z,6.84
2022-12-24T23:23:13.920Z,7.31
2022-12-24T23:25:40.309Z,7.26
2022-12-24T23:28:06.732Z,6.97
2022-12-24T23:30:33.241Z,6.77
2022-12-24T23:32:59.620Z,6.56
2022-12-24T23:35:26.058Z,6.55
2022-12-24T23:37:52.499Z,6.48
2022-12-24T23:40:18.857Z,6.65
2022-12-24T23:42:45.249Z,6.72
2022-12-24T23:45:14.134Z,6.60
2022-12-24T23:47:40.653Z,6.24
2022-12-24T23:50:07.065Z,6.23
2022-12-24T23:52:33.430Z,6.64
2022-12-24T23:54:59.889Z,7.17
2022-12-24T23:57:26.360Z,7.23
2022-12-24T23:59:52.792Z,7.03
